createdAt,value
2023-01-27T00:00:44.511Z,87932.00
2023-01-27T00:01:44.514Z,87932.00
2023-01-27T00:02:44.549Z,87932.00
2023-01-27T00:03:44.589Z,87928.00
2023-01-27T00:04:44.529Z,87928.00
2023-01-27T00:05:44.528Z,87930.00
2023-01-27T00:06:44.540Z,87932.00
2023-01-27T00:07:44.530Z,87928.00
2023-01-27T00:08:44.557Z,87928.00
2023-01-27T00:09:44.543Z,87926.00
2023-01-27T00:10:44.542Z,87926.00
2023-01-27T00:11:44.526Z,87924.00
2023-01-27T00:12:44.536Z,87924.00
2023-01-27T00:13:44.540Z,87928.00
2023-01-27T00:14:44.547Z,87926.00
2023-01-27T00:15:44.566Z,87928.00
2023-01-27T00:16:44.574Z,87928.00
2023-01-27T00:17:44.540Z,87928.00
2023-01-27T00:18:44.562Z,87926.00
2023-01-27T00:19:44.568Z,87924.00
2023-01-27T00:20:44.581Z,87924.00
2023-01-27T00:21:44.565Z,87924.00
2023-01-27T00:22:44.581Z,87926.00
2023-01-27T00:23:44.579Z,87924.00
2023-01-27T00:24:44.570Z,87922.00
2023-01-27T00:25:44.591Z,87926.00
2023-01-27T00:26:44.585Z,87926.00
2023-01-27T00:27:44.604Z,87928.00
2023-01-27T00:28:44.614Z,87928.00
2023-01-27T00:29:44.590Z,87928.00
2023-01-27T00:30:44.615Z,87926.00
2023-01-27T00:31:44.667Z,87924.00
2023-01-27T00:32:44.647Z,87924.00
2023-01-27T00:33:44.580Z,87924.00
2023-01-27T00:34:44.595Z,87920.00
2023-01-27T00:35:44.579Z,87920.00
2023-01-27T00:36:44.601Z,87920.00
2023-01-27T00:37:44.572Z,87920.00
2023-01-27T00:38:44.556Z,87922.00
2023-01-27T00:39:44.561Z,87922.00
2023-01-27T00:40:44.562Z,87922.00
2023-01-27T00:41:44.554Z,87922.00
2023-01-27T00:42:44.546Z,87922.00
2023-01-27T00:43:44.545Z,87920.00
2023-01-27T00:44:44.553Z,87924.00
2023-01-27T00:45:44.537Z,87922.00
2023-01-27T00:46:44.582Z,87924.00
2023-01-27T00:47:44.531Z,87920.00
2023-01-27T00:48:44.533Z,87922.00
2023-01-27T00:49:44.521Z,87922.00
2023-01-27T00:50:44.508Z,87926.00
2023-01-27T00:51:44.500Z,87924.00
2023-01-27T00:52:44.489Z,87924.00
2023-01-27T00:53:44.490Z,87924.00
2023-01-27T00:54:44.480Z,87924.00
2023-01-27T00:55:44.484Z,87924.00
2023-01-27T00:56:44.459Z,87922.00
2023-01-27T00:57:44.463Z,87922.00
2023-01-27T00:58:44.466Z,87924.00
2023-01-27T00:59:44.471Z,87922.00
2023-01-27T01:00:44.457Z,87920.00
2023-01-27T01:01:44.496Z,87920.00
2023-01-27T01:02:44.531Z,87918.00
2023-01-27T01:03:44.445Z,87918.00
2023-01-27T01:04:44.440Z,87918.00
2023-01-27T01:05:44.449Z,87916.00
2023-01-27T01:06:44.440Z,87916.00
2023-01-27T01:07:44.433Z,87918.00
2023-01-27T01:08:44.424Z,87918.00
2023-01-27T01:09:44.427Z,87920.00
2023-01-27T01:10:44.423Z,87920.00
2023-01-27T01:11:44.398Z,87920.00
2023-01-27T01:12:44.406Z,87922.00
2023-01-27T01:13:44.373Z,87918.00
2023-01-27T01:14:44.389Z,87922.00
2023-01-27T01:15:44.420Z,87922.00
2023-01-27T01:16:44.376Z,87924.00
2023-01-27T01:17:44.345Z,87924.00
2023-01-27T01:18:44.356Z,87926.00
2023-01-27T01:19:44.353Z,87924.00
2023-01-27T01:20:44.347Z,87924.00
2023-01-27T01:21:44.316Z,87922.00
2023-01-27T01:22:44.313Z,87920.00
2023-01-27T01:23:44.315Z,87920.00
2023-01-27T01:24:44.332Z,87918.00
2023-01-27T01:25:44.289Z,87918.00
2023-01-27T01:26:44.293Z,87918.00
2023-01-27T01:27:44.289Z,87914.00
2023-01-27T01:28:44.284Z,87918.00
2023-01-27T01:29:44.299Z,87916.00
2023-01-27T01:30:44.298Z,87918.00
2023-01-27T01:31:44.329Z,87918.00
2023-01-27T01:32:44.269Z,87920.00
2023-01-27T01:33:44.267Z,87918.00
2023-01-27T01:34:44.292Z,87918.00
2023-01-27T01:35:44.260Z,87918.00
2023-01-27T01:36:44.270Z,87914.00
2023-01-27T01:37:44.261Z,87914.00
2023-01-27T01:38:44.269Z,87918.00
2023-01-27T01:39:44.267Z,87914.00
2023-01-27T01:40:44.818Z,87916.00
2023-01-27T01:41:44.273Z,87914.00
2023-01-27T01:42:44.272Z,87916.00
2023-01-27T01:43:44.269Z,87916.00
2023-01-27T01:44:44.280Z,87914.00
2023-01-27T01:45:44.279Z,87914.00
2023-01-27T01:46:44.306Z,87914.00
2023-01-27T01:47:44.262Z,87910.00
2023-01-27T01:48:44.283Z,87914.00
2023-01-27T01:49:44.267Z,87912.00
2023-01-27T01:50:44.271Z,87912.00
2023-01-27T01:51:44.289Z,87912.00
2023-01-27T01:52:44.273Z,87914.00
2023-01-27T01:53:44.277Z,87912.00
2023-01-27T01:54:44.276Z,87914.00
2023-01-27T01:55:44.294Z,87914.00
2023-01-27T01:56:44.294Z,87912.00
2023-01-27T01:57:44.294Z,87910.00
2023-01-27T01:58:44.536Z,87908.00
2023-01-27T01:59:44.297Z,87910.00
2023-01-27T02:00:44.286Z,87908.00
2023-01-27T02:01:44.286Z,87910.00
2023-01-27T02:02:44.382Z,87910.00
2023-01-27T02:03:44.292Z,87912.00
2023-01-27T02:04:44.300Z,87912.00
2023-01-27T02:05:44.293Z,87910.00
2023-01-27T02:06:44.304Z,87910.00
2023-01-27T02:07:44.297Z,87910.00
2023-01-27T02:08:44.342Z,87910.00
2023-01-27T02:09:44.289Z,87912.00
2023-01-27T02:10:44.290Z,87912.00
2023-01-27T02:11:44.284Z,87907.00
2023-01-27T02:12:44.283Z,87910.00
2023-01-27T02:13:44.314Z,87908.00
2023-01-27T02:14:44.287Z,87908.00
2023-01-27T02:15:44.279Z,87910.00
2023-01-27T02:16:44.368Z,87912.00
2023-01-27T02:17:44.287Z,87912.00
2023-01-27T02:18:44.292Z,87912.00
2023-01-27T02:19:44.284Z,87910.00
2023-01-27T02:20:44.278Z,87914.00
2023-01-27T02:21:44.282Z,87914.00
2023-01-27T02:22:44.271Z,87912.00
2023-01-27T02:23:44.283Z,87908.00
2023-01-27T02:24:44.274Z,87907.00
2023-01-27T02:25:44.270Z,87910.00
2023-01-27T02:26:44.288Z,87912.00
2023-01-27T02:27:44.280Z,87912.00
2023-01-27T02:28:44.280Z,87912.00
2023-01-27T02:29:44.280Z,87912.00
2023-01-27T02:30:44.367Z,87912.00
2023-01-27T02:31:44.456Z,87914.00
2023-01-27T02:32:44.292Z,87914.00
2023-01-27T02:33:44.287Z,87914.00
2023-01-27T02:34:44.311Z,87912.00
2023-01-27T02:35:44.316Z,87914.00
2023-01-27T02:36:44.313Z,87912.00
2023-01-27T02:37:44.307Z,87910.00
2023-01-27T02:38:44.297Z,87910.00
2023-01-27T02:39:44.296Z,87908.00
2023-01-27T02:40:44.303Z,87905.00
2023-01-27T02:41:44.301Z,87905.00
2023-01-27T02:42:44.302Z,87907.00
2023-01-27T02:43:44.309Z,87905.00
2023-01-27T02:44:44.302Z,87905.00
2023-01-27T02:45:44.298Z,87903.00
2023-01-27T02:46:44.330Z,87907.00
2023-01-27T02:47:44.306Z,87905.00
2023-01-27T02:48:44.322Z,87907.00
2023-01-27T02:49:44.296Z,87905.00
2023-01-27T02:50:44.315Z,87903.00
2023-01-27T02:51:44.313Z,87901.00
2023-01-27T02:52:44.322Z,87903.00
2023-01-27T02:53:44.350Z,87901.00
2023-01-27T02:54:44.348Z,87901.00
2023-01-27T02:55:44.316Z,87899.00
2023-01-27T02:56:44.319Z,87899.00
2023-01-27T02:57:44.319Z,87897.00
2023-01-27T02:58:44.330Z,87897.00
2023-01-27T02:59:44.337Z,87899.00
2023-01-27T03:00:44.322Z,87895.00
2023-01-27T03:01:44.386Z,87899.00
2023-01-27T03:02:44.366Z,87893.00
2023-01-27T03:03:44.453Z,87895.00
2023-01-27T03:04:44.342Z,87893.00
2023-01-27T03:05:44.351Z,87891.00
2023-01-27T03:06:44.351Z,87893.00
2023-01-27T03:07:44.345Z,87897.00
2023-01-27T03:08:44.360Z,87893.00
2023-01-27T03:09:44.353Z,87889.00
2023-01-27T03:10:44.385Z,87891.00
2023-01-27T03:11:44.359Z,87893.00
2023-01-27T03:12:44.374Z,87893.00
2023-01-27T03:13:44.457Z,87893.00
2023-01-27T03:14:44.375Z,87893.00
2023-01-27T03:15:44.414Z,87893.00
2023-01-27T03:16:44.392Z,87895.00
2023-01-27T03:17:44.388Z,87895.00
2023-01-27T03:18:44.405Z,87897.00
2023-01-27T03:19:44.404Z,87895.00
2023-01-27T03:20:44.437Z,87895.00
2023-01-27T03:21:44.415Z,87895.00
2023-01-27T03:22:44.411Z,87891.00
2023-01-27T03:23:44.413Z,87891.00
2023-01-27T03:24:44.418Z,87893.00
2023-01-27T03:25:44.417Z,87893.00
2023-01-27T03:26:44.418Z,87891.00
2023-01-27T03:27:44.423Z,87889.00
2023-01-27T03:28:44.419Z,87889.00
2023-01-27T03:29:44.416Z,87889.00
2023-01-27T03:30:44.477Z,87889.00
2023-01-27T03:31:44.574Z,87887.00
2023-01-27T03:32:44.418Z,87885.00
2023-01-27T03:33:44.412Z,87883.00
2023-01-27T03:34:44.410Z,87883.00
2023-01-27T03:35:44.417Z,87883.00
2023-01-27T03:36:44.425Z,87883.00
2023-01-27T03:37:44.432Z,87883.00
2023-01-27T03:38:44.443Z,87883.00
2023-01-27T03:39:44.436Z,87881.00
2023-01-27T03:40:44.441Z,87881.00
2023-01-27T03:41:44.441Z,87881.00
2023-01-27T03:42:44.452Z,87883.00
2023-01-27T03:43:44.461Z,87883.00
2023-01-27T03:44:44.459Z,87887.00
2023-01-27T03:45:44.468Z,87883.00
2023-01-27T03:46:44.469Z,87883.00
2023-01-27T03:47:44.471Z,87885.00
2023-01-27T03:48:44.464Z,87883.00
2023-01-27T03:49:44.462Z,87883.00
2023-01-27T03:50:44.471Z,87885.00
2023-01-27T03:51:44.468Z,87883.00
2023-01-27T03:52:44.463Z,87881.00
2023-01-27T03:53:44.477Z,87883.00
2023-01-27T03:54:44.476Z,87883.00
2023-01-27T03:55:44.482Z,87883.00
2023-01-27T03:56:44.479Z,87881.00
2023-01-27T03:57:44.485Z,87881.00
2023-01-27T03:58:44.498Z,87881.00
2023-01-27T03:59:44.507Z,87883.00
2023-01-27T04:00:44.508Z,87879.00
2023-01-27T04:01:44.557Z,87877.00
2023-01-27T04:02:44.533Z,87877.00
2023-01-27T04:03:44.526Z,87877.00
2023-01-27T04:04:44.521Z,87875.00
2023-01-27T04:05:44.526Z,87873.00
2023-01-27T04:06:44.519Z,87873.00
2023-01-27T04:07:44.537Z,87873.00
2023-01-27T04:08:44.537Z,87875.00
2023-01-27T04:09:44.533Z,87871.00
2023-01-27T04:10:44.516Z,87875.00
2023-01-27T04:11:44.532Z,87875.00
2023-01-27T04:12:44.507Z,87873.00
2023-01-27T04:13:44.505Z,87871.00
2023-01-27T04:14:44.515Z,87873.00
2023-01-27T04:15:44.519Z,87869.00
2023-01-27T04:16:44.505Z,87869.00
2023-01-27T04:17:44.504Z,87871.00
2023-01-27T04:18:44.505Z,87869.00
2023-01-27T04:19:44.497Z,87871.00
2023-01-27T04:20:44.510Z,87869.00
2023-01-27T04:21:44.492Z,87871.00
2023-01-27T04:22:44.505Z,87869.00
2023-01-27T04:23:44.499Z,87873.00
2023-01-27T04:24:44.501Z,87869.00
2023-01-27T04:25:44.496Z,87869.00
2023-01-27T04:26:44.488Z,87867.00
2023-01-27T04:27:44.495Z,87867.00
2023-01-27T04:28:45.001Z,87867.00
2023-01-27T04:29:44.502Z,87867.00
2023-01-27T04:30:44.505Z,87865.00
2023-01-27T04:31:44.581Z,87867.00
2023-01-27T04:32:44.502Z,87867.00
2023-01-27T04:33:44.511Z,87865.00
2023-01-27T04:34:44.528Z,87867.00
2023-01-27T04:35:44.513Z,87869.00
2023-01-27T04:36:44.521Z,87867.00
2023-01-27T04:37:44.526Z,87867.00
2023-01-27T04:38:44.528Z,87869.00
2023-01-27T04:39:44.551Z,87865.00
2023-01-27T04:40:44.538Z,87863.00
2023-01-27T04:41:44.535Z,87861.00
2023-01-27T04:42:44.534Z,87865.00
2023-01-27T04:43:44.541Z,87863.00
2023-01-27T04:44:44.557Z,87863.00
2023-01-27T04:45:44.640Z,87863.00
2023-01-27T04:46:44.565Z,87863.00
2023-01-27T04:47:44.568Z,87863.00
2023-01-27T04:48:44.563Z,87865.00
2023-01-27T04:49:44.580Z,87865.00
2023-01-27T04:50:44.564Z,87863.00
2023-01-27T04:51:46.229Z,87863.00
2023-01-27T04:52:44.568Z,87859.00
2023-01-27T04:53:44.579Z,87863.00
2023-01-27T04:54:44.590Z,87863.00
2023-01-27T04:55:44.603Z,87863.00
2023-01-27T04:56:44.592Z,87863.00
2023-01-27T04:57:44.578Z,87865.00
2023-01-27T04:58:44.579Z,87867.00
2023-01-27T04:59:44.581Z,87869.00
2023-01-27T05:00:44.600Z,87869.00
2023-01-27T05:01:44.625Z,87873.00
2023-01-27T05:02:44.683Z,87877.00
2023-01-27T05:03:44.583Z,87879.00
2023-01-27T05:04:44.587Z,87877.00
2023-01-27T05:05:44.587Z,87879.00
2023-01-27T05:06:44.597Z,87881.00
2023-01-27T05:07:44.593Z,87881.00
2023-01-27T05:08:44.588Z,87883.00
2023-01-27T05:09:44.612Z,87881.00
2023-01-27T05:10:44.596Z,87883.00
2023-01-27T05:11:44.613Z,87883.00
2023-01-27T05:12:44.621Z,87883.00
2023-01-27T05:13:44.632Z,87881.00
2023-01-27T05:14:44.621Z,87881.00
2023-01-27T05:15:44.727Z,87881.00
2023-01-27T05:16:44.723Z,87883.00
2023-01-27T05:17:44.635Z,87883.00
2023-01-27T05:18:44.632Z,87885.00
2023-01-27T05:19:44.635Z,87883.00
2023-01-27T05:20:44.630Z,87885.00
2023-01-27T05:21:44.643Z,87887.00
2023-01-27T05:22:44.636Z,87885.00
2023-01-27T05:23:44.642Z,87883.00
2023-01-27T05:24:44.641Z,87885.00
2023-01-27T05:25:44.647Z,87885.00
2023-01-27T05:26:44.653Z,87885.00
2023-01-27T05:27:44.649Z,87889.00
2023-01-27T05:28:44.658Z,87887.00
2023-01-27T05:29:44.660Z,87883.00
2023-01-27T05:30:44.699Z,87885.00
2023-01-27T05:31:44.821Z,87885.00
2023-01-27T05:32:44.671Z,87885.00
2023-01-27T05:33:44.680Z,87883.00
2023-01-27T05:34:44.680Z,87883.00
2023-01-27T05:35:44.717Z,87883.00
2023-01-27T05:36:44.682Z,87885.00
2023-01-27T05:37:44.692Z,87887.00
2023-01-27T05:38:44.692Z,87885.00
2023-01-27T05:39:44.688Z,87885.00
2023-01-27T05:40:44.698Z,87889.00
2023-01-27T05:41:44.698Z,87889.00
2023-01-27T05:42:44.704Z,87887.00
2023-01-27T05:43:44.702Z,87891.00
2023-01-27T05:44:44.691Z,87891.00
2023-01-27T05:45:44.680Z,87891.00
2023-01-27T05:46:45.227Z,87893.00
2023-01-27T05:47:44.679Z,87895.00
2023-01-27T05:48:44.690Z,87895.00
2023-01-27T05:49:44.680Z,87903.00
2023-01-27T05:50:44.679Z,87901.00
2023-01-27T05:51:44.679Z,87901.00
2023-01-27T05:52:44.687Z,87899.00
2023-01-27T05:53:44.676Z,87899.00
2023-01-27T05:54:44.695Z,87899.00
2023-01-27T05:55:44.741Z,87897.00
2023-01-27T05:56:44.672Z,87895.00
2023-01-27T05:57:44.691Z,87897.00
2023-01-27T05:58:44.732Z,87899.00
2023-01-27T05:59:44.677Z,87897.00
2023-01-27T06:00:44.679Z,87899.00
2023-01-27T06:01:44.843Z,87897.00
2023-01-27T06:02:44.824Z,87897.00
2023-01-27T06:03:44.692Z,87901.00
2023-01-27T06:04:44.680Z,87903.00
2023-01-27T06:05:44.665Z,87901.00
2023-01-27T06:06:44.677Z,87901.00
2023-01-27T06:07:44.673Z,87901.00
2023-01-27T06:08:44.680Z,87901.00
2023-01-27T06:09:44.679Z,87901.00
2023-01-27T06:10:44.682Z,87901.00
2023-01-27T06:11:44.689Z,87903.00
2023-01-27T06:12:44.685Z,87903.00
2023-01-27T06:13:44.687Z,87903.00
2023-01-27T06:14:44.704Z,87905.00
2023-01-27T06:15:44.676Z,87905.00
2023-01-27T06:16:44.759Z,87910.00
2023-01-27T06:17:44.690Z,87912.00
2023-01-27T06:18:44.682Z,87910.00
2023-01-27T06:19:44.681Z,87908.00
2023-01-27T06:20:44.678Z,87908.00
2023-01-27T06:21:44.693Z,87908.00
2023-01-27T06:22:44.691Z,87910.00
2023-01-27T06:23:44.705Z,87912.00
2023-01-27T06:24:44.690Z,87914.00
2023-01-27T06:25:44.698Z,87914.00
2023-01-27T06:26:44.702Z,87916.00
2023-01-27T06:27:44.705Z,87916.00
2023-01-27T06:28:44.725Z,87918.00
2023-01-27T06:29:44.711Z,87916.00
2023-01-27T06:30:44.836Z,87918.00
2023-01-27T06:31:44.762Z,87920.00
2023-01-27T06:32:44.715Z,87918.00
2023-01-27T06:33:44.743Z,87922.00
2023-01-27T06:34:44.748Z,87924.00
2023-01-27T06:35:44.736Z,87922.00
2023-01-27T06:36:44.730Z,87922.00
2023-01-27T06:37:44.735Z,87920.00
2023-01-27T06:38:44.791Z,87916.00
2023-01-27T06:39:44.749Z,87922.00
2023-01-27T06:40:44.769Z,87920.00
2023-01-27T06:41:44.728Z,87924.00
2023-01-27T06:42:44.742Z,87926.00
2023-01-27T06:43:44.735Z,87928.00
2023-01-27T06:44:44.730Z,87930.00
2023-01-27T06:45:44.741Z,87926.00
2023-01-27T06:46:44.783Z,87926.00
2023-01-27T06:47:44.735Z,87924.00
2023-01-27T06:48:44.737Z,87922.00
2023-01-27T06:49:44.719Z,87926.00
2023-01-27T06:50:44.718Z,87924.00
2023-01-27T06:51:44.713Z,87922.00
2023-01-27T06:52:44.712Z,87928.00
2023-01-27T06:53:44.719Z,87928.00
2023-01-27T06:54:44.707Z,87932.00
2023-01-27T06:55:44.712Z,87932.00
2023-01-27T06:56:44.695Z,87932.00
2023-01-27T06:57:44.682Z,87930.00
2023-01-27T06:58:44.703Z,87932.00
2023-01-27T06:59:44.666Z,87934.00
2023-01-27T07:00:44.669Z,87936.00
2023-01-27T07:01:44.776Z,87940.00
2023-01-27T07:02:44.750Z,87938.00
2023-01-27T07:03:45.215Z,87940.00
2023-01-27T07:04:44.731Z,87938.00
2023-01-27T07:05:44.674Z,87940.00
2023-01-27T09:01:44.715Z,87974.00
2023-01-27T09:04:44.767Z,87972.00
2023-01-27T09:06:44.655Z,87978.00
2023-01-27T09:07:44.653Z,87976.00
2023-01-27T09:08:44.686Z,87978.00
2023-01-27T09:09:44.652Z,87976.00
2023-01-27T09:10:44.683Z,87978.00
2023-01-27T09:11:44.826Z,87978.00
2023-01-27T09:12:44.730Z,87978.00
2023-01-27T09:13:44.652Z,87978.00
2023-01-27T09:14:44.736Z,87988.00
2023-01-27T09:15:51.728Z,87986.00
2023-01-27T09:16:44.693Z,87988.00
2023-01-27T09:17:44.697Z,87994.00
2023-01-27T09:18:44.694Z,87982.00
2023-01-27T09:19:44.719Z,87986.00
2023-01-27T09:20:44.726Z,87988.00
2023-01-27T09:21:44.755Z,87988.00
2023-01-27T09:22:44.853Z,87990.00
2023-01-27T09:23:44.767Z,87990.00
2023-01-27T09:24:44.769Z,87992.00
2023-01-27T09:25:44.804Z,87988.00
2023-01-27T09:26:44.793Z,87992.00
2023-01-27T09:27:44.800Z,87986.00
2023-01-27T09:28:44.808Z,87986.00
2023-01-27T09:29:44.805Z,87984.00
2023-01-27T09:30:46.223Z,87988.00
2023-01-27T09:31:44.995Z,87990.00
2023-01-27T09:32:44.853Z,87990.00
2023-01-27T09:33:44.852Z,87992.00
2023-01-27T09:34:44.842Z,88002.00
2023-01-27T09:35:44.848Z,87988.00
2023-01-27T09:36:44.855Z,87990.00
2023-01-27T09:37:44.845Z,87992.00
2023-01-27T09:38:44.876Z,87992.00
2023-01-27T09:39:44.885Z,87992.00
2023-01-27T09:40:44.857Z,87992.00
2023-01-27T09:41:44.851Z,87992.00
2023-01-27T09:42:44.867Z,87994.00
2023-01-27T09:43:44.856Z,88000.00
2023-01-27T09:44:44.857Z,87998.00
2023-01-27T09:45:44.863Z,88004.00
2023-01-27T09:46:44.865Z,87994.00
2023-01-27T09:47:44.841Z,87998.00
2023-01-27T09:48:44.840Z,88000.00
2023-01-27T09:49:44.843Z,88000.00
2023-01-27T09:50:44.837Z,87996.00
2023-01-27T09:51:44.848Z,87994.00
2023-01-27T09:52:47.793Z,87996.00
2023-01-27T09:53:44.841Z,87994.00
2023-01-27T09:54:44.852Z,87994.00
2023-01-27T09:55:44.848Z,87988.00
2023-01-27T09:56:44.864Z,87988.00
2023-01-27T09:57:44.860Z,87986.00
2023-01-27T09:58:44.846Z,87994.00
2023-01-27T09:59:44.875Z,87986.00
2023-01-27T10:00:45.784Z,87990.00
2023-01-27T10:01:44.894Z,87986.00
2023-01-27T10:02:44.839Z,87988.00
2023-01-27T10:03:44.839Z,87986.00
2023-01-27T10:04:44.871Z,87988.00
2023-01-27T10:05:44.824Z,87992.00
2023-01-27T10:06:44.831Z,87990.00
2023-01-27T10:07:44.822Z,87988.00
2023-01-27T10:08:44.824Z,87986.00
2023-01-27T10:09:44.834Z,87984.00
2023-01-27T10:10:44.807Z,87990.00
2023-01-27T10:11:44.806Z,87986.00
2023-01-27T10:12:44.802Z,87986.00
2023-01-27T10:13:44.878Z,87984.00
2023-01-27T10:14:44.807Z,87984.00
2023-01-27T10:15:44.800Z,87982.00
2023-01-27T10:16:44.806Z,87982.00
2023-01-27T10:17:44.791Z,87982.00
2023-01-27T10:18:44.771Z,87982.00
2023-01-27T10:19:44.761Z,87980.00
2023-01-27T10:20:45.286Z,87980.00
2023-01-27T10:21:44.751Z,87980.00
2023-01-27T10:22:44.909Z,87980.00
2023-01-27T10:23:44.760Z,87980.00
2023-01-27T10:24:44.756Z,87976.00
2023-01-27T10:25:44.718Z,87972.00
2023-01-27T10:26:44.767Z,87974.00
2023-01-27T10:27:44.721Z,87972.00
2023-01-27T10:28:44.717Z,87963.00
2023-01-27T10:29:44.735Z,87968.00
2023-01-27T10:30:44.782Z,87967.00
2023-01-27T10:31:44.786Z,87963.00
2023-01-27T10:32:44.856Z,87961.00
2023-01-27T10:33:44.735Z,87967.00
2023-01-27T10:34:44.687Z,87965.00
2023-01-27T10:35:44.675Z,87972.00
2023-01-27T10:36:44.701Z,87967.00
2023-01-27T10:37:44.669Z,87961.00
2023-01-27T10:38:44.681Z,87954.00
2023-01-27T10:39:44.672Z,87952.00
2023-01-27T10:44:44.686Z,87950.00
2023-01-27T11:04:44.692Z,87942.00
2023-01-27T11:05:44.669Z,87944.00
2023-01-27T11:06:44.690Z,87946.00
2023-01-27T11:07:44.711Z,87942.00
2023-01-27T11:08:44.708Z,87946.00
2023-01-27T11:09:44.745Z,87936.00
2023-01-27T11:10:44.723Z,87936.00
2023-01-27T11:11:44.781Z,87930.00
2023-01-27T11:12:44.715Z,87930.00
2023-01-27T11:13:44.819Z,87936.00
2023-01-27T11:14:44.714Z,87932.00
2023-01-27T11:15:44.714Z,87934.00
2023-01-27T11:16:44.777Z,87930.00
2023-01-27T11:17:44.735Z,87936.00
2023-01-27T11:18:44.734Z,87932.00
2023-01-27T11:19:44.848Z,87936.00
2023-01-27T11:20:44.774Z,87932.00
2023-01-27T11:21:47.276Z,87934.00
2023-01-27T11:22:45.759Z,87930.00
2023-01-27T11:23:44.748Z,87938.00
2023-01-27T11:24:44.790Z,87934.00
2023-01-27T11:25:44.765Z,87928.00
2023-01-27T11:26:44.766Z,87924.00
2023-01-27T11:27:44.777Z,87924.00
2023-01-27T11:28:44.775Z,87926.00
2023-01-27T11:29:44.873Z,87920.00
2023-01-27T11:30:44.875Z,87920.00
2023-01-27T11:31:44.822Z,87912.00
2023-01-27T11:32:44.791Z,87914.00
2023-01-27T11:33:44.810Z,87916.00
2023-01-27T11:34:44.804Z,87916.00
2023-01-27T11:35:44.841Z,87920.00
2023-01-27T11:36:44.811Z,87914.00
2023-01-27T11:37:44.832Z,87914.00
2023-01-27T11:38:44.819Z,87916.00
2023-01-27T11:39:44.807Z,87914.00
2023-01-27T11:40:44.824Z,87912.00
2023-01-27T11:41:44.844Z,87916.00
2023-01-27T11:42:44.812Z,87916.00
2023-01-27T11:43:44.820Z,87912.00
2023-01-27T11:44:44.811Z,87907.00
2023-01-27T11:45:44.918Z,87914.00
2023-01-27T11:46:44.826Z,87910.00
2023-01-27T11:47:44.821Z,87920.00
2023-01-27T11:48:44.823Z,87908.00
2023-01-27T11:49:44.819Z,87908.00
2023-01-27T11:50:44.845Z,87903.00
2023-01-27T11:51:44.846Z,87907.00
2023-01-27T11:52:44.872Z,87907.00
2023-01-27T11:53:45.282Z,87907.00
2023-01-27T11:54:44.821Z,87908.00
2023-01-27T11:55:44.812Z,87903.00
2023-01-27T11:56:44.859Z,87903.00
2023-01-27T11:57:44.817Z,87905.00
2023-01-27T11:58:44.815Z,87901.00
2023-01-27T11:59:44.819Z,87899.00
2023-01-27T12:00:44.805Z,87903.00
2023-01-27T12:01:44.893Z,87903.00
2023-01-27T12:02:45.039Z,87901.00
2023-01-27T12:03:44.875Z,87899.00
2023-01-27T12:04:44.864Z,87893.00
2023-01-27T12:05:44.799Z,87899.00
2023-01-27T12:06:44.802Z,87901.00
2023-01-27T12:09:44.821Z,87901.00
2023-01-27T12:10:44.813Z,87903.00
2023-01-27T12:11:44.782Z,87899.00
2023-01-27T12:12:44.786Z,87899.00
2023-01-27T12:13:44.773Z,87899.00
2023-01-27T12:14:44.779Z,87899.00
2023-01-27T12:15:44.837Z,87903.00
2023-01-27T12:16:44.763Z,87901.00
2023-01-27T12:17:44.767Z,87901.00
2023-01-27T12:18:44.756Z,87895.00
2023-01-27T12:19:44.758Z,87899.00
2023-01-27T12:20:44.732Z,87891.00
2023-01-27T12:21:44.733Z,87891.00
2023-01-27T12:22:44.732Z,87891.00
2023-01-27T12:23:44.724Z,87887.00
2023-01-27T12:24:44.717Z,87887.00
2023-01-27T12:25:44.760Z,87891.00
2023-01-27T12:26:44.726Z,87895.00
2023-01-27T12:27:44.687Z,87883.00
2023-01-27T12:28:44.690Z,87899.00
2023-01-27T12:29:44.668Z,87895.00
2023-01-27T12:30:44.784Z,87897.00
2023-01-27T12:31:44.739Z,87914.00
2023-01-27T12:33:44.668Z,87907.00
2023-01-27T18:54:43.634Z,88122.00
2023-01-27T18:55:43.656Z,88120.00
2023-01-27T18:56:43.642Z,88120.00
2023-01-27T18:57:43.649Z,88120.00
2023-01-27T18:58:43.647Z,88118.00
2023-01-27T18:59:43.656Z,88118.00
2023-01-27T19:00:43.671Z,88116.00
2023-01-27T19:01:43.686Z,88116.00
2023-01-27T19:02:43.667Z,88112.00
2023-01-27T19:03:43.656Z,88112.00
2023-01-27T19:04:43.686Z,88116.00
2023-01-27T19:05:43.658Z,88120.00
2023-01-27T19:06:43.662Z,88118.00
2023-01-27T19:07:43.658Z,88118.00
2023-01-27T19:08:43.655Z,88116.00
2023-01-27T19:09:43.657Z,88116.00
2023-01-27T19:10:43.660Z,88116.00
2023-01-27T19:11:43.655Z,88114.00
2023-01-27T19:12:43.665Z,88116.00
2023-01-27T19:13:43.663Z,88114.00
2023-01-27T19:14:43.661Z,88112.00
2023-01-27T19:15:43.666Z,88110.00
2023-01-27T19:16:43.666Z,88110.00
2023-01-27T19:17:43.662Z,88116.00
2023-01-27T19:18:43.661Z,88116.00
2023-01-27T19:19:43.710Z,88116.00
2023-01-27T19:20:43.674Z,88110.00
2023-01-27T19:21:43.673Z,88112.00
2023-01-27T19:22:43.687Z,88116.00
2023-01-27T19:23:43.683Z,88118.00
2023-01-27T19:24:43.698Z,88112.00
2023-01-27T19:25:43.677Z,88116.00
2023-01-27T19:26:43.674Z,88110.00
2023-01-27T19:27:43.683Z,88116.00
2023-01-27T19:28:43.677Z,88118.00
2023-01-27T19:29:43.677Z,88124.00
2023-01-27T19:30:43.774Z,88122.00
2023-01-27T19:31:43.725Z,88120.00
2023-01-27T19:32:43.690Z,88120.00
2023-01-27T19:33:43.697Z,88122.00
2023-01-27T19:34:43.692Z,88124.00
2023-01-27T19:35:43.693Z,88122.00
2023-01-27T19:36:43.682Z,88122.00
2023-01-27T19:37:43.678Z,88118.00
2023-01-27T19:38:43.680Z,88116.00
2023-01-27T19:39:43.679Z,88116.00
2023-01-27T19:40:43.692Z,88122.00
2023-01-27T19:41:43.676Z,88122.00
2023-01-27T19:42:43.675Z,88122.00
2023-01-27T19:43:43.677Z,88120.00
2023-01-27T19:44:43.687Z,88122.00
2023-01-27T19:45:43.701Z,88124.00
2023-01-27T19:46:43.679Z,88127.00
2023-01-27T19:47:43.684Z,88131.00
2023-01-27T19:48:43.683Z,88131.00
2023-01-27T19:49:43.692Z,88129.00
2023-01-27T19:50:43.696Z,88127.00
2023-01-27T19:51:43.686Z,88131.00
2023-01-27T19:52:43.692Z,88131.00
2023-01-27T19:53:43.681Z,88133.00
2023-01-27T19:54:43.686Z,88133.00
2023-01-27T19:55:43.695Z,88131.00
2023-01-27T19:56:43.699Z,88133.00
2023-01-27T19:57:43.695Z,88137.00
2023-01-27T19:58:43.704Z,88141.00
2023-01-27T19:59:43.697Z,88141.00
2023-01-27T20:00:43.796Z,88141.00
2023-01-27T20:01:43.706Z,88141.00
2023-01-27T20:02:43.701Z,88145.00
2023-01-27T20:03:43.697Z,88145.00
2023-01-27T20:04:43.784Z,88143.00
2023-01-27T20:05:43.744Z,88143.00
2023-01-27T20:06:43.711Z,88139.00
2023-01-27T20:07:43.711Z,88143.00
2023-01-27T20:08:43.748Z,88143.00
2023-01-27T20:09:43.716Z,88143.00
2023-01-27T20:10:43.720Z,88143.00
2023-01-27T20:11:43.721Z,88145.00
2023-01-27T20:12:43.716Z,88143.00
2023-01-27T20:13:43.722Z,88143.00
2023-01-27T20:14:43.748Z,88147.00
2023-01-27T20:15:43.770Z,88145.00
2023-01-27T20:16:43.777Z,88145.00
2023-01-27T20:17:43.735Z,88141.00
2023-01-27T20:18:43.737Z,88141.00
2023-01-27T20:19:43.743Z,88139.00
2023-01-27T20:20:43.733Z,88143.00
2023-01-27T20:21:43.745Z,88139.00
2023-01-27T20:22:43.740Z,88141.00
2023-01-27T20:23:43.745Z,88141.00
2023-01-27T20:24:43.747Z,88137.00
2023-01-27T20:25:43.746Z,88141.00
2023-01-27T20:26:43.757Z,88143.00
2023-01-27T20:27:43.808Z,88143.00
2023-01-27T20:28:43.775Z,88145.00